createdAt,value
2022-10-29T00:00:08.087Z,5.78
2022-10-29T00:02:34.745Z,6.15
2022-10-29T00:05:01.487Z,5.72
2022-10-29T00:07:28.332Z,6.10
2022-10-29T00:09:55.075Z,4.95
2022-10-29T00:12:21.847Z,4.85
2022-10-29T00:14:48.561Z,4.78
2022-10-29T00:17:18.027Z,5.22
2022-10-29T00:19:44.756Z,4.28
2022-10-29T00:22:11.433Z,3.58
2022-10-29T00:24:38.103Z,4.70
2022-10-29T00:27:04.923Z,4.50
2022-10-29T00:29:31.686Z,4.00
2022-10-29T00:32:00.912Z,4.00
2022-10-29T00:34:27.656Z,4.15
2022-10-29T00:36:54.525Z,4.70
2022-10-29T00:39:21.245Z,4.10
2022-10-29T00:41:50.443Z,4.28
2022-10-29T00:44:25.375Z,4.00
2022-10-29T00:47:31.764Z,3.47
2022-10-29T00:50:03.490Z,4.15
2022-10-29T00:52:33.434Z,4.95
2022-10-29T00:55:07.172Z,5.30
2022-10-29T00:57:40.206Z,3.80
2022-10-29T01:00:07.879Z,3.75
2022-10-29T01:02:40.847Z,2.65
2022-10-29T01:05:11.484Z,3.10
2022-10-29T01:07:38.395Z,3.10
2022-10-29T01:10:05.532Z,2.58
2022-10-29T01:12:43.545Z,3.17
2022-10-29T01:15:34.948Z,3.63
2022-10-29T01:18:08.583Z,3.78
2022-10-29T01:21:05.541Z,3.60
2022-10-29T01:23:50.727Z,5.68
2022-10-29T01:26:29.241Z,4.80
2022-10-29T01:29:12.731Z,5.85
2022-10-29T01:31:44.739Z,6.25
2022-10-29T01:34:25.637Z,6.32
2022-10-29T01:37:30.396Z,5.40
2022-10-29T01:40:11.795Z,4.18
2022-10-29T01:42:43.853Z,5.60
2022-10-29T01:45:19.463Z,3.70
2022-10-29T01:47:54.514Z,5.28
2022-10-29T01:50:24.310Z,5.68
2022-10-29T01:52:53.060Z,5.78
2022-10-29T01:55:23.401Z,5.18
2022-10-29T01:57:50.212Z,4.22
2022-10-29T02:00:19.377Z,4.00
2022-10-29T02:03:09.102Z,3.92
2022-10-29T02:06:07.280Z,4.05
2022-10-29T02:08:47.131Z,3.85
2022-10-29T02:11:25.204Z,3.08
2022-10-29T02:14:06.200Z,3.17
2022-10-29T02:16:34.381Z,2.87
2022-10-29T02:19:01.501Z,3.05
2022-10-29T02:21:28.254Z,2.75
2022-10-29T02:23:54.995Z,2.45
2022-10-29T02:26:23.983Z,2.50
2022-10-29T02:28:50.702Z,3.30
2022-10-29T02:31:19.672Z,4.28
2022-10-29T02:33:46.348Z,4.93
2022-10-29T02:36:15.441Z,6.68
2022-10-29T02:38:42.176Z,11.63
2022-10-29T02:41:08.890Z,11.18
2022-10-29T02:43:35.815Z,7.65
2022-10-29T02:46:19.624Z,9.10
2022-10-29T02:48:46.752Z,9.40
2022-10-29T02:51:14.374Z,10.85
2022-10-29T02:53:43.553Z,12.07
2022-10-29T02:56:10.603Z,14.07
2022-10-29T02:58:38.838Z,15.13
2022-10-29T03:01:06.996Z,14.32
2022-10-29T03:03:33.741Z,13.18
2022-10-29T03:06:00.498Z,14.15
2022-10-29T03:08:27.255Z,15.98
2022-10-29T03:10:55.452Z,14.48
2022-10-29T03:13:22.144Z,15.55
2022-10-29T03:15:48.817Z,13.90
2022-10-29T03:18:18.140Z,15.40
2022-10-29T03:20:45.540Z,14.68
2022-10-29T03:23:12.309Z,15.93
2022-10-29T03:25:39.005Z,15.25
2022-10-29T03:28:05.925Z,15.00
2022-10-29T03:30:33.197Z,13.30
2022-10-29T03:33:00.878Z,15.95
2022-10-29T03:35:27.709Z,14.95
2022-10-29T03:37:55.561Z,14.60
2022-10-29T03:40:22.267Z,14.65
2022-10-29T03:42:51.227Z,14.52
2022-10-29T03:45:20.186Z,13.95
2022-10-29T03:47:47.052Z,14.35
2022-10-29T03:50:14.005Z,13.27
2022-10-29T03:52:40.725Z,12.15
2022-10-29T03:55:08.004Z,11.77
2022-10-29T03:57:34.914Z,12.50
2022-10-29T04:00:04.854Z,12.23
2022-10-29T04:02:31.744Z,12.40
2022-10-29T04:04:58.508Z,11.93
2022-10-29T04:07:25.239Z,10.98
2022-10-29T04:09:54.629Z,11.00
2022-10-29T04:12:21.361Z,11.13
2022-10-29T04:17:18.140Z,11.02
2022-10-29T04:19:44.891Z,10.52
2022-10-29T04:28:41.812Z,10.32
2022-10-29T04:30:36.325Z,9.55
2022-10-29T04:33:03.105Z,9.52
2022-10-29T04:35:29.844Z,9.68
2022-10-29T04:37:57.675Z,9.13
2022-10-29T04:40:24.716Z,9.85
2022-10-29T04:42:51.819Z,8.88
2022-10-29T04:45:18.923Z,9.52
2022-10-29T04:47:48.519Z,8.98
2022-10-29T04:50:15.265Z,8.32
2022-10-29T04:52:41.982Z,9.00
2022-10-29T04:55:09.045Z,9.75
2022-10-29T04:57:35.818Z,9.55
2022-10-29T05:00:05.198Z,9.40
2022-10-29T05:02:31.891Z,10.07
2022-10-29T05:04:58.636Z,9.02
2022-10-29T05:07:25.476Z,10.15
2022-10-29T05:09:52.150Z,9.90
2022-10-29T05:12:18.955Z,10.15
2022-10-29T05:14:45.670Z,9.43
2022-10-29T05:17:14.669Z,10.05
2022-10-29T05:19:43.588Z,9.77
2022-10-29T05:22:12.533Z,9.27
2022-10-29T05:24:39.404Z,9.82
2022-10-29T05:27:07.165Z,10.02
2022-10-29T05:29:33.923Z,10.48
2022-10-29T05:32:03.565Z,11.27
2022-10-29T05:34:30.303Z,10.40
2022-10-29T05:36:57.201Z,10.98
2022-10-29T05:39:23.963Z,11.18
2022-10-29T05:41:50.690Z,10.63
2022-10-29T05:44:17.364Z,11.30
2022-10-29T05:46:48.002Z,11.10
2022-10-29T05:49:14.676Z,10.18
2022-10-29T05:51:41.375Z,10.75
2022-10-29T05:54:08.067Z,10.98
2022-10-29T05:56:34.800Z,11.55
2022-10-29T05:59:01.552Z,11.75
2022-10-29T06:01:28.286Z,11.43
2022-10-29T06:03:55.031Z,12.45
2022-10-29T06:06:21.831Z,12.43
2022-10-29T06:08:48.542Z,13.27
2022-10-29T06:11:15.235Z,12.35
2022-10-29T06:13:41.956Z,12.75
2022-10-29T06:16:08.797Z,12.57
2022-10-29T06:18:35.550Z,13.57
2022-10-29T06:21:02.317Z,13.20
2022-10-29T06:23:32.311Z,14.25
2022-10-29T06:26:00.870Z,14.07
2022-10-29T06:28:33.456Z,13.70
2022-10-29T06:31:01.775Z,14.23
2022-10-29T06:33:28.546Z,15.10
2022-10-29T06:35:59.621Z,15.00
2022-10-29T06:38:26.377Z,16.02
2022-10-29T06:40:54.034Z,15.50
2022-10-29T06:43:23.201Z,16.60
2022-10-29T06:45:50.218Z,16.70
2022-10-29T06:48:21.651Z,17.25
2022-10-29T06:50:50.328Z,16.55
2022-10-29T06:53:19.323Z,16.13
2022-10-29T06:55:46.173Z,16.98
2022-10-29T06:58:18.235Z,16.48
2022-10-29T07:00:45.700Z,17.45
2022-10-29T07:03:14.076Z,17.38
2022-10-29T07:05:40.839Z,17.85
2022-10-29T07:08:10.323Z,17.55
2022-10-29T07:10:37.588Z,17.27
2022-10-29T07:13:04.471Z,16.65
2022-10-29T07:15:31.736Z,18.33
2022-10-29T07:18:07.391Z,18.63
2022-10-29T07:20:37.366Z,18.63
2022-10-29T07:23:04.379Z,19.15
2022-10-29T07:25:32.359Z,20.08
2022-10-29T07:28:14.252Z,19.38
2022-10-29T07:30:41.783Z,20.80
2022-10-29T07:33:08.836Z,19.77
2022-10-29T07:35:35.618Z,21.13
2022-10-29T07:38:08.837Z,22.48
2022-10-29T07:40:38.841Z,22.17
2022-10-29T07:43:08.617Z,22.58
2022-10-29T07:45:37.577Z,23.38
2022-10-29T07:48:09.438Z,24.13
2022-10-29T07:50:37.836Z,25.05
2022-10-29T07:53:06.630Z,24.48
2022-10-29T07:55:33.547Z,24.55
2022-10-29T07:58:02.599Z,23.67
2022-10-29T08:00:35.488Z,24.73
2022-10-29T08:03:02.454Z,24.40
2022-10-29T08:05:32.609Z,23.73
2022-10-29T08:08:00.319Z,25.77
2022-10-29T08:10:30.631Z,25.33
2022-10-29T08:13:00.393Z,25.65
2022-10-29T08:15:28.939Z,25.80
2022-10-29T08:17:56.353Z,24.70
2022-10-29T08:20:25.590Z,24.23
2022-10-29T08:22:53.468Z,25.38
2022-10-29T08:25:26.117Z,26.10
2022-10-29T08:28:04.647Z,26.55
2022-10-29T08:30:32.439Z,25.60
2022-10-29T08:33:01.840Z,25.55
2022-10-29T08:35:32.799Z,26.05
2022-10-29T08:37:59.869Z,27.35
2022-10-29T08:40:34.049Z,25.60
2022-10-29T08:43:11.578Z,26.00
2022-10-29T08:45:50.804Z,27.10
2022-10-29T08:48:46.402Z,25.48
2022-10-29T08:51:42.719Z,25.60
2022-10-29T08:54:30.161Z,26.75
2022-10-29T08:57:09.227Z,27.20
2022-10-29T08:59:42.088Z,25.52
2022-10-29T09:02:20.736Z,25.60
2022-10-29T09:04:47.518Z,26.63
2022-10-29T09:07:33.771Z,25.92
2022-10-29T09:10:23.358Z,26.30
2022-10-29T09:13:22.129Z,25.17
2022-10-29T09:16:07.077Z,27.10
2022-10-29T09:18:48.657Z,25.13
2022-10-29T09:21:28.715Z,24.58
2022-10-29T09:24:19.201Z,24.10
2022-10-29T09:26:51.292Z,24.65
2022-10-29T09:29:24.114Z,24.83
2022-10-29T09:31:59.806Z,23.52
2022-10-29T09:34:35.845Z,23.92
2022-10-29T09:37:06.890Z,23.67
2022-10-29T09:39:41.322Z,24.00
2022-10-29T09:42:20.054Z,22.77
2022-10-29T09:44:56.224Z,22.15
2022-10-29T09:47:39.077Z,21.65
2022-10-29T09:50:16.926Z,20.75
2022-10-29T09:52:45.218Z,20.35
2022-10-29T09:55:20.188Z,18.70
2022-10-29T09:57:50.050Z,18.77
2022-10-29T10:00:26.246Z,17.67
2022-10-29T10:03:14.710Z,16.45
2022-10-29T10:06:02.827Z,16.15
2022-10-29T10:08:33.263Z,15.80
2022-10-29T10:11:06.989Z,14.52
2022-10-29T10:13:51.142Z,15.20
2022-10-29T10:16:25.113Z,14.02
2022-10-29T10:18:51.894Z,13.45
2022-10-29T10:21:32.946Z,13.60
2022-10-29T10:24:03.279Z,13.10
2022-10-29T10:26:43.457Z,12.07
2022-10-29T10:29:20.915Z,12.50
2022-10-29T10:32:18.806Z,11.95
2022-10-29T10:34:45.502Z,11.30
2022-10-29T10:37:19.397Z,11.60
2022-10-29T10:39:50.547Z,11.57
2022-10-29T10:42:39.430Z,11.30
2022-10-29T10:45:16.287Z,10.52
2022-10-29T10:47:47.627Z,10.48
2022-10-29T10:53:22.310Z,10.68
2022-10-29T10:55:57.882Z,10.60
2022-10-29T10:58:40.110Z,10.55
2022-10-29T11:01:10.424Z,10.80
2022-10-29T11:03:40.856Z,9.82
2022-10-29T11:06:14.898Z,10.48
2022-10-29T11:08:58.421Z,10.50
2022-10-29T11:11:48.408Z,10.75
2022-10-29T11:14:27.944Z,10.20
2022-10-29T11:16:58.368Z,10.83
2022-10-29T11:19:49.050Z,9.32
2022-10-29T11:22:24.645Z,10.10
2022-10-29T11:25:06.091Z,9.68
2022-10-29T11:30:03.460Z,9.75
2022-10-29T11:32:33.518Z,9.35
2022-10-29T11:35:12.454Z,9.75
2022-10-29T11:37:51.336Z,10.27
2022-10-29T11:40:18.079Z,10.30
2022-10-29T11:42:48.036Z,9.05
2022-10-29T11:45:20.350Z,9.32
2022-10-29T11:48:05.752Z,9.30
2022-10-29T11:50:56.089Z,8.77
2022-10-29T11:54:16.342Z,9.55
2022-10-29T11:56:59.086Z,9.93
2022-10-29T11:59:59.406Z,9.55
2022-10-29T12:02:43.902Z,9.20
2022-10-29T12:05:22.755Z,9.07
2022-10-29T12:08:27.163Z,9.13
2022-10-29T12:11:18.498Z,8.60
2022-10-29T12:14:26.335Z,7.72
2022-10-29T12:17:01.430Z,8.35
2022-10-29T12:19:42.315Z,8.77
2022-10-29T12:22:24.520Z,9.35
2022-10-29T12:25:07.266Z,8.63
2022-10-29T12:27:34.065Z,8.13
2022-10-29T12:30:03.226Z,8.57
2022-10-29T12:32:58.078Z,8.70
2022-10-29T12:35:29.092Z,7.82
2022-10-29T12:38:23.537Z,7.55
2022-10-29T12:40:57.018Z,8.18
2022-10-29T12:43:30.444Z,8.38
2022-10-29T12:46:20.117Z,8.05
2022-10-29T12:48:51.642Z,8.00
2022-10-29T12:51:52.434Z,8.27
2022-10-29T12:54:44.250Z,8.70
2022-10-29T12:57:13.834Z,9.70
2022-10-29T12:59:42.535Z,8.93
2022-10-29T13:02:26.476Z,8.65
2022-10-29T13:05:10.816Z,9.38
2022-10-29T13:07:50.449Z,9.15
2022-10-29T13:10:26.365Z,8.45
2022-10-29T13:12:55.683Z,8.27
2022-10-29T13:15:27.826Z,9.00
2022-10-29T13:17:57.569Z,8.60
2022-10-29T13:20:27.942Z,8.25
2022-10-29T13:23:05.361Z,8.32
2022-10-29T13:25:38.655Z,8.25
2022-10-29T13:28:08.669Z,8.75
2022-10-29T13:30:39.621Z,8.43
2022-10-29T13:33:36.612Z,8.10
2022-10-29T13:36:37.379Z,7.68
2022-10-29T13:39:18.390Z,7.77
2022-10-29T13:41:50.967Z,8.55
2022-10-29T13:44:26.146Z,8.55
2022-10-29T13:47:05.026Z,8.52
2022-10-29T13:49:44.689Z,8.02
2022-10-29T13:52:18.452Z,8.48
2022-10-29T13:55:03.050Z,8.10
2022-10-29T13:57:38.319Z,8.32
2022-10-29T14:00:07.125Z,9.05
2022-10-29T14:02:51.546Z,8.18
2022-10-29T14:05:26.251Z,9.00
2022-10-29T14:08:17.077Z,8.38
2022-10-29T14:10:43.782Z,9.35
2022-10-29T14:13:22.081Z,8.80
2022-10-29T14:16:13.334Z,8.70
2022-10-29T14:18:44.664Z,8.23
2022-10-29T14:21:21.885Z,8.23
2022-10-29T14:24:06.742Z,8.32
2022-10-29T14:26:37.663Z,8.40
2022-10-29T14:29:14.799Z,8.82
2022-10-29T14:31:41.526Z,8.35
2022-10-29T14:34:23.826Z,9.43
2022-10-29T14:36:55.224Z,8.70
2022-10-29T14:39:32.566Z,8.55
2022-10-29T14:42:23.539Z,8.40
2022-10-29T14:47:30.474Z,8.77
2022-10-29T14:50:06.596Z,9.15
2022-10-29T14:52:38.321Z,8.55
2022-10-29T14:55:27.761Z,8.73
2022-10-29T14:58:04.360Z,8.60
2022-10-29T15:00:35.748Z,9.00
2022-10-29T15:03:04.315Z,8.70
2022-10-29T15:05:36.026Z,8.93
2022-10-29T15:08:21.830Z,9.35
2022-10-29T15:10:54.001Z,8.77
2022-10-29T15:13:29.601Z,9.02
2022-10-29T15:16:07.347Z,9.07
2022-10-29T15:18:35.816Z,9.48
2022-10-29T15:21:03.744Z,8.77
2022-10-29T15:23:34.312Z,9.27
2022-10-29T15:26:11.431Z,9.30
2022-10-29T15:28:46.399Z,9.35
2022-10-29T15:31:30.626Z,9.00
2022-10-29T15:34:16.059Z,9.80
2022-10-29T15:36:48.390Z,8.98
2022-10-29T15:39:19.977Z,10.32
2022-10-29T15:41:51.507Z,9.02
2022-10-29T15:44:29.574Z,9.10
2022-10-29T15:46:59.364Z,9.13
2022-10-29T15:49:33.110Z,9.50
2022-10-29T15:52:00.848Z,8.77
2022-10-29T15:54:28.621Z,9.35
2022-10-29T15:56:55.692Z,9.32
2022-10-29T15:59:26.789Z,9.52
2022-10-29T16:01:55.984Z,9.43
2022-10-29T16:04:25.562Z,9.10
2022-10-29T16:06:55.049Z,9.15
2022-10-29T16:09:23.938Z,9.18
2022-10-29T16:11:53.426Z,9.07
2022-10-29T16:14:22.316Z,9.52
2022-10-29T16:16:49.167Z,9.00
2022-10-29T16:19:18.352Z,9.07
2022-10-29T16:21:47.333Z,8.95
2022-10-29T16:24:15.537Z,8.98
2022-10-29T16:26:42.471Z,9.43
2022-10-29T16:29:09.417Z,9.93
2022-10-29T16:31:38.584Z,8.63
2022-10-29T16:34:08.602Z,8.93
2022-10-29T16:36:38.043Z,9.55
2022-10-29T16:39:07.433Z,8.20
2022-10-29T16:41:36.731Z,8.32
2022-10-29T16:44:05.694Z,8.90
2022-10-29T16:46:32.658Z,8.65
2022-10-29T16:48:59.391Z,8.27
2022-10-29T16:51:26.195Z,9.23
2022-10-29T16:53:55.843Z,9.13
2022-10-29T16:56:27.185Z,8.80
2022-10-29T17:01:28.844Z,8.32
2022-10-29T17:03:55.619Z,9.20
2022-10-29T17:06:22.610Z,8.85
2022-10-29T17:08:51.536Z,8.60
2022-10-29T17:11:23.488Z,7.82
2022-10-29T17:13:52.461Z,8.15
2022-10-29T17:16:20.447Z,8.40
2022-10-29T17:18:50.710Z,9.25
2022-10-29T17:21:18.209Z,10.55
2022-10-29T17:23:44.898Z,13.70
2022-10-29T17:26:11.987Z,11.88
2022-10-29T17:28:39.576Z,10.27
2022-10-29T17:31:12.076Z,9.57
2022-10-29T17:33:38.845Z,9.07
2022-10-29T17:36:11.253Z,9.45
2022-10-29T17:38:40.308Z,8.60
2022-10-29T17:41:07.517Z,8.68
2022-10-29T17:43:34.456Z,8.10
2022-10-29T17:46:01.277Z,8.90
2022-10-29T17:48:30.440Z,7.90
2022-10-29T17:51:02.513Z,8.52
2022-10-29T17:53:31.931Z,7.70
2022-10-29T17:56:01.885Z,7.47
2022-10-29T17:58:28.783Z,6.72
2022-10-29T18:00:55.625Z,7.15
2022-10-29T18:03:25.708Z,7.30
2022-10-29T18:05:52.428Z,7.18
2022-10-29T18:08:21.312Z,7.00
2022-10-29T18:10:48.025Z,6.93
2022-10-29T18:13:14.706Z,7.07
2022-10-29T18:15:43.957Z,7.72
2022-10-29T18:18:13.346Z,6.93
2022-10-29T18:20:42.203Z,7.72
2022-10-29T18:23:13.553Z,6.70
2022-10-29T18:25:40.300Z,6.88
2022-10-29T18:28:09.439Z,7.60
2022-10-29T18:30:36.193Z,7.20
2022-10-29T18:33:02.984Z,7.78
2022-10-29T18:35:29.789Z,7.60
2022-10-29T18:37:59.837Z,7.70
2022-10-29T18:40:28.995Z,7.15
2022-10-29T18:42:58.133Z,7.45
2022-10-29T18:45:27.450Z,8.10
2022-10-29T18:47:54.580Z,8.07
2022-10-29T18:50:23.820Z,7.47
2022-10-29T18:52:50.524Z,7.88
2022-10-29T18:55:17.390Z,8.00
2022-10-29T18:57:46.729Z,7.53
2022-10-29T19:00:14.120Z,8.05
2022-10-29T19:02:43.172Z,8.18
2022-10-29T19:05:12.378Z,8.10
2022-10-29T19:07:39.269Z,8.00
2022-10-29T19:10:09.079Z,7.82
2022-10-29T19:12:36.901Z,8.00
2022-10-29T19:15:06.176Z,7.45
2022-10-29T19:17:35.576Z,7.65
2022-10-29T19:20:02.656Z,7.32
2022-10-29T19:22:30.901Z,7.18
2022-10-29T19:25:00.360Z,7.30
2022-10-29T19:27:27.167Z,6.57
2022-10-29T19:29:53.909Z,7.28
2022-10-29T19:32:22.938Z,8.23
2022-10-29T19:34:49.705Z,7.32
2022-10-29T19:37:18.785Z,7.45
2022-10-29T19:39:50.164Z,6.60
2022-10-29T19:42:19.627Z,6.55
2022-10-29T19:44:46.311Z,7.03
2022-10-29T19:47:13.140Z,7.00
2022-10-29T19:49:39.822Z,6.50
2022-10-29T19:52:06.539Z,6.68
2022-10-29T19:54:33.839Z,6.15
2022-10-29T19:57:00.786Z,6.03
2022-10-29T19:59:27.545Z,6.25
2022-10-29T20:01:56.807Z,6.70
2022-10-29T20:04:23.741Z,6.15
2022-10-29T20:06:55.202Z,6.10
2022-10-29T20:09:21.919Z,5.80
2022-10-29T20:11:51.008Z,6.20
2022-10-29T20:14:17.807Z,6.55
2022-10-29T20:16:44.737Z,6.53
2022-10-29T20:19:11.783Z,6.80
2022-10-29T20:21:38.473Z,6.40
2022-10-29T20:24:09.720Z,7.07
2022-10-29T20:26:38.855Z,6.63
2022-10-29T20:29:07.834Z,6.35
2022-10-29T20:31:38.593Z,6.50
2022-10-29T20:34:08.873Z,6.55
2022-10-29T20:36:38.347Z,7.20
2022-10-29T20:39:07.277Z,7.13
2022-10-29T20:41:34.046Z,7.20
2022-10-29T20:44:04.093Z,7.90
2022-10-29T20:46:30.973Z,7.63
2022-10-29T20:48:59.981Z,7.25
2022-10-29T20:51:27.220Z,7.43
2022-10-29T20:53:54.584Z,6.65
2022-10-29T20:56:25.225Z,6.82
2022-10-29T20:58:54.102Z,7.93
2022-10-29T21:01:24.103Z,7.68
2022-10-29T21:03:51.486Z,7.63
2022-10-29T21:06:19.208Z,7.25
2022-10-29T21:08:50.981Z,7.90
2022-10-29T21:11:19.140Z,7.80
2022-10-29T21:13:48.808Z,7.60
2022-10-29T21:16:26.393Z,7.78
2022-10-29T21:18:58.425Z,8.15
2022-10-29T21:21:30.007Z,8.15
2022-10-29T21:23:59.931Z,8.73
2022-10-29T21:26:28.140Z,8.68
2022-10-29T21:28:55.646Z,7.85
2022-10-29T21:31:23.017Z,8.40
2022-10-29T21:33:53.435Z,8.30
2022-10-29T21:36:22.938Z,8.30
2022-10-29T21:38:49.865Z,8.50
2022-10-29T21:41:19.123Z,8.70
2022-10-29T21:43:46.168Z,9.75
2022-10-29T21:46:15.834Z,8.65
2022-10-29T21:48:44.772Z,8.85
2022-10-29T21:51:13.298Z,9.02
2022-10-29T21:53:40.274Z,8.68
2022-10-29T21:56:09.971Z,9.13
2022-10-29T21:58:36.689Z,9.13
2022-10-29T22:01:09.153Z,8.70
2022-10-29T22:03:40.657Z,8.57
2022-10-29T22:08:36.817Z,8.95
2022-10-29T22:11:04.202Z,9.20
2022-10-29T22:13:32.446Z,9.15
2022-10-29T22:16:00.026Z,9.40
2022-10-29T22:18:29.918Z,9.65
2022-10-29T22:21:24.052Z,8.85
2022-10-29T22:23:55.954Z,9.00
2022-10-29T22:26:25.288Z,8.93
2022-10-29T22:28:55.258Z,9.07
2022-10-29T22:31:23.447Z,9.15
2022-10-29T22:33:52.583Z,9.63
2022-10-29T22:36:25.040Z,9.10
2022-10-29T22:38:56.089Z,9.60
2022-10-29T22:41:26.985Z,9.63
2022-10-29T22:43:54.840Z,9.88
2022-10-29T22:46:24.621Z,12.32
2022-10-29T22:48:56.453Z,13.18
2022-10-29T22:51:25.447Z,13.30
2022-10-29T22:53:53.693Z,13.55
2022-10-29T22:56:32.259Z,11.55
2022-10-29T22:58:59.029Z,10.45
2022-10-29T23:01:28.466Z,10.48
2022-10-29T23:03:58.284Z,10.68
2022-10-29T23:06:25.454Z,10.82
2022-10-29T23:08:54.061Z,10.35
2022-10-29T23:11:29.570Z,10.43
2022-10-29T23:14:00.939Z,10.40
2022-10-29T23:16:30.270Z,10.45
2022-10-29T23:19:01.250Z,10.95
2022-10-29T23:21:28.978Z,10.00
2022-10-29T23:23:56.158Z,11.07
2022-10-29T23:26:27.095Z,10.55
2022-10-29T23:28:56.048Z,10.90
2022-10-29T23:31:26.324Z,10.52
2022-10-29T23:33:55.077Z,10.88
2022-10-29T23:36:23.901Z,10.10
2022-10-29T23:39:01.223Z,10.93
2022-10-29T23:41:29.332Z,11.15
2022-10-29T23:43:56.770Z,11.00
2022-10-29T23:46:24.163Z,10.82
2022-10-29T23:48:50.893Z,11.20
2022-10-29T23:51:17.991Z,10.93
2022-10-29T23:53:44.718Z,10.70
2022-10-29T23:56:13.691Z,10.88
2022-10-29T23:58:40.407Z,10.85
